Davenport, IA

8:53 PM CDT en Septiembre 01, 2014 (GMT -0500)
Davenport Municipal | Change Station
CLOSE
Current Station
Aeropuerto
Location: Davenport,
Altura: 755 ft
Estaciones meteorológicas cercanas

Alt 755 ft 41.61 °N, 90.59 °W | Updated 1 hour ago

Clear
Despejado
71 ° F
Sensación térmica 71 ° F
N
7
Viento Variable Viento desde Oeste

Hoy
Alta -- | Baja -- ° F
--% Posibilidad de precipitaciones
Ayer
Alta -- | Baja -- ° F
Precip. -- pul
6:28 AM 7:35 PM
Creciente, 46% visible
Presión 29.81 pul
Visibilidad 10.0 Millas
Nubes Despejado
Punto de rocío 65 ° F
Humedad 81%
Precipitaciones 0.27 pul
Espesor de la nieve No disponible.
UV 0 de una escala de 12
Polen 5.60 de una escala de 12
Calidad del aire No disponible.
Flu Activity No disponible.
METAR KDVN 020052Z AUTO 26006KT 10SM CLR 22/18 A2982 RMK AO2 SLP094 T02170183 $

More Conditions Fewer Conditions

Presión 29.81 pul
Visibilidad 10.0 Millas
Nubes Despejado
Punto de rocío 65 ° F
Humedad 81%
Precipitaciones 0.27 pul
Espesor de la nieve No disponible.
UV 0 de una escala de 12
Polen 5.60 de una escala de 12
Calidad del aire No disponible.
Flu Activity No disponible.
METAR KDVN 020052Z AUTO 26006KT 10SM CLR 22/18 A2982 RMK AO2 SLP094 T02170183 $

More Conditions Fewer Conditions

10-Day Weather Forecast

Almanac

Astronomía

Sep. 01, 2014 Salida Puesta
Hora real 6:28 AM CDT 7:35 PM CDT
Crepúsculo civil 5:59 AM CDT 8:03 PM CDT
Crepúsculo náutico 5:25 AM CDT 8:37 PM CDT
Crepúsculo astronómico 4:50 AM CDT 9:13 PM CDT
Luna 1:19 PM CDT (9/1) 11:31 PM CDT (9/1)
Horas de luz 14h 04m
Horas de luz
13h 07m
Tomorrow will be 2m 41s shorter.
Creciente, 46% of the Moon is Illuminated
Hoy
Creciente
Sep 2
Cuarto creciente
Sep 8
Luna llena
Sep 15
Cuarto menguante
Sep 24
Nueva

Extremos de hoy

Máximos del estado Bajos del estado

Community

WunderPhotos

Upload Photos

1,749,476 ¡fotos cargadas!

Nearby

Grosos de nieve

Estación Profundido Altura
No tenemos constancia de nieve nueva.

Actividad de terremotos

Ciudad Distance Mag. Tiempo y dato
No hay informes recientes de la actividad sísmica.
Magnitud mínima muestra es 2,5.

Temperaturas de aguas costeras

Lugar Temperatura
Sin partes meteorológicos de las estaciones

Estaciones meteorológicas cercanas